Terminal Aerodrome Forecast
Issued by NWS Bismarck, ND

Home | Current Version | Previous Version | Text Only | Print | Product List | Glossary Off
Versions: 1 2 3 4 5 6 7 8 9 10 11 12 13 14 15 16

000
FTUS43 KBIS 210500
TAFBIS
TAF
KBIS 210524Z 2106/2206 28004KT P6SM SKC
     FM211000 30010KT P6SM SKC
     FM211300 31011KT P6SM FEW025 SCT035
     FM211600 33011KT P6SM SKC
     FM220200 07006KT P6SM SKC=

USA.gov is the U.S. government's official web portal to all federal, state and local government web resources and services.